sensor_id;sensor_type;location;lat;lon;timestamp;pressure;altitude;pressure_sealevel;temperature;humidity
23170;BME280;11753;43.144;24.714;2022-10-17T00:00:43;101089.13;;;6.32;97.24
23170;BME280;11753;43.144;24.714;2022-10-17T00:01:44;101085.09;;;6.26;97.50
23170;BME280;11753;43.144;24.714;2022-10-17T00:02:45;101083.69;;;6.21;97.94
23170;BME280;11753;43.144;24.714;2022-10-17T00:03:46;101092.56;;;6.18;97.95
23170;BME280;11753;43.144;24.714;2022-10-17T00:04:47;101086.88;;;6.26;97.89
23170;BME280;11753;43.144;24.714;2022-10-17T00:05:48;101093.69;;;6.28;97.67
23170;BME280;11753;43.144;24.714;2022-10-17T00:06:49;101088.06;;;6.20;98.08
23170;BME280;11753;43.144;24.714;2022-10-17T00:07:51;101094.13;;;6.21;97.92
23170;BME280;11753;43.144;24.714;2022-10-17T00:08:52;101087.06;;;6.23;97.66
23170;BME280;11753;43.144;24.714;2022-10-17T00:09:53;101092.28;;;6.23;97.91
23170;BME280;11753;43.144;24.714;2022-10-17T00:10:57;101088.00;;;6.22;97.89
23170;BME280;11753;43.144;24.714;2022-10-17T00:11:58;101091.34;;;6.24;97.72
23170;BME280;11753;43.144;24.714;2022-10-17T00:12:59;101093.38;;;6.19;97.87
23170;BME280;11753;43.144;24.714;2022-10-17T00:14:01;101090.03;;;6.17;97.86
23170;BME280;11753;43.144;24.714;2022-10-17T00:15:05;101090.41;;;6.25;98.02
23170;BME280;11753;43.144;24.714;2022-10-17T00:16:06;101089.09;;;6.18;97.97
23170;BME280;11753;43.144;24.714;2022-10-17T00:17:07;101090.03;;;6.17;98.07
23170;BME280;11753;43.144;24.714;2022-10-17T00:18:08;101093.28;;;6.20;98.08
23170;BME280;11753;43.144;24.714;2022-10-17T00:19:09;101091.91;;;6.15;98.09
23170;BME280;11753;43.144;24.714;2022-10-17T00:20:11;101085.81;;;6.14;98.35
23170;BME280;11753;43.144;24.714;2022-10-17T00:21:16;101089.69;;;6.23;98.11
23170;BME280;11753;43.144;24.714;2022-10-17T00:22:17;101090.16;;;6.29;98.04
23170;BME280;11753;43.144;24.714;2022-10-17T00:23:18;101091.00;;;6.30;97.83
23170;BME280;11753;43.144;24.714;2022-10-17T00:24:19;101085.41;;;6.36;97.32
23170;BME280;11753;43.144;24.714;2022-10-17T00:25:21;101094.56;;;6.29;97.33
23170;BME280;11753;43.144;24.714;2022-10-17T00:26:22;101083.31;;;6.27;97.40
23170;BME280;11753;43.144;24.714;2022-10-17T00:27:23;101094.25;;;6.33;97.14
23170;BME280;11753;43.144;24.714;2022-10-17T00:28:23;101090.31;;;6.26;97.01
23170;BME280;11753;43.144;24.714;2022-10-17T00:29:24;101092.84;;;6.28;96.95
23170;BME280;11753;43.144;24.714;2022-10-17T00:30:25;101094.63;;;6.27;96.90
23170;BME280;11753;43.144;24.714;2022-10-17T00:31:26;101093.16;;;6.38;96.60
23170;BME280;11753;43.144;24.714;2022-10-17T00:32:27;101093.41;;;6.33;96.26
23170;BME280;11753;43.144;24.714;2022-10-17T00:33:29;101098.41;;;6.38;96.14
23170;BME280;11753;43.144;24.714;2022-10-17T00:34:30;101097.63;;;6.35;95.90
23170;BME280;11753;43.144;24.714;2022-10-17T00:35:31;101091.66;;;6.33;96.06
23170;BME280;11753;43.144;24.714;2022-10-17T00:36:33;101089.97;;;6.32;96.15
23170;BME280;11753;43.144;24.714;2022-10-17T00:37:34;101091.16;;;6.27;96.08
23170;BME280;11753;43.144;24.714;2022-10-17T00:38:35;101096.41;;;6.27;96.15
23170;BME280;11753;43.144;24.714;2022-10-17T00:39:39;101101.81;;;6.24;96.30
23170;BME280;11753;43.144;24.714;2022-10-17T00:40:40;101098.56;;;6.34;96.14
23170;BME280;11753;43.144;24.714;2022-10-17T00:41:41;101097.72;;;6.34;95.98
23170;BME280;11753;43.144;24.714;2022-10-17T00:42:42;101090.81;;;6.33;95.99
23170;BME280;11753;43.144;24.714;2022-10-17T00:45:23;101093.63;;;6.30;96.10
23170;BME280;11753;43.144;24.714;2022-10-17T00:46:31;101093.41;;;6.33;95.67
23170;BME280;11753;43.144;24.714;2022-10-17T00:47:34;101091.75;;;6.32;96.17
23170;BME280;11753;43.144;24.714;2022-10-17T00:48:35;101093.53;;;6.31;96.02
23170;BME280;11753;43.144;24.714;2022-10-17T00:49:37;101095.09;;;6.34;95.81
23170;BME280;11753;43.144;24.714;2022-10-17T00:50:42;101094.38;;;6.32;96.03
23170;BME280;11753;43.144;24.714;2022-10-17T00:51:52;101088.38;;;6.30;96.05
23170;BME280;11753;43.144;24.714;2022-10-17T00:52:57;101090.16;;;6.29;96.33
23170;BME280;11753;43.144;24.714;2022-10-17T00:54:01;101096.03;;;6.33;96.26
23170;BME280;11753;43.144;24.714;2022-10-17T00:55:08;101104.63;;;6.35;96.18
23170;BME280;11753;43.144;24.714;2022-10-17T00:56:11;101103.53;;;6.39;96.06
23170;BME280;11753;43.144;24.714;2022-10-17T00:57:13;101101.75;;;6.40;96.00
23170;BME280;11753;43.144;24.714;2022-10-17T00:58:15;101095.50;;;6.42;95.85
23170;BME280;11753;43.144;24.714;2022-10-17T00:59:19;101093.44;;;6.47;95.59
23170;BME280;11753;43.144;24.714;2022-10-17T01:00:21;101102.81;;;6.51;95.65
23170;BME280;11753;43.144;24.714;2022-10-17T01:01:23;101093.19;;;6.52;95.36
23170;BME280;11753;43.144;24.714;2022-10-17T01:02:25;101098.59;;;6.49;95.38
23170;BME280;11753;43.144;24.714;2022-10-17T01:03:26;101098.53;;;6.50;95.47
23170;BME280;11753;43.144;24.714;2022-10-17T01:04:27;101102.44;;;6.43;95.56
23170;BME280;11753;43.144;24.714;2022-10-17T01:05:28;101100.34;;;6.48;95.31
23170;BME280;11753;43.144;24.714;2022-10-17T01:06:29;101092.97;;;6.41;95.68
23170;BME280;11753;43.144;24.714;2022-10-17T01:07:30;101098.69;;;6.47;95.56
23170;BME280;11753;43.144;24.714;2022-10-17T01:08:31;101102.03;;;6.49;95.54
23170;BME280;11753;43.144;24.714;2022-10-17T01:09:33;101099.44;;;6.49;95.44
23170;BME280;11753;43.144;24.714;2022-10-17T01:12:23;101098.19;;;6.41;95.62
23170;BME280;11753;43.144;24.714;2022-10-17T01:13:30;101095.88;;;6.36;95.63
23170;BME280;11753;43.144;24.714;2022-10-17T01:14:51;101094.00;;;6.38;95.71
23170;BME280;11753;43.144;24.714;2022-10-17T01:16:15;101094.59;;;6.43;95.55
23170;BME280;11753;43.144;24.714;2022-10-17T01:18:50;101094.75;;;6.40;95.38
23170;BME280;11753;43.144;24.714;2022-10-17T01:21:35;101098.88;;;6.44;95.03
23170;BME280;11753;43.144;24.714;2022-10-17T01:22:49;101098.88;;;6.44;94.92
23170;BME280;11753;43.144;24.714;2022-10-17T01:25:23;101099.03;;;6.41;94.50
23170;BME280;11753;43.144;24.714;2022-10-17T01:31:31;101105.41;;;6.37;95.42
23170;BME280;11753;43.144;24.714;2022-10-17T01:32:44;101100.91;;;6.39;95.01
23170;BME280;11753;43.144;24.714;2022-10-17T01:35:09;101102.59;;;6.40;94.89
23170;BME280;11753;43.144;24.714;2022-10-17T01:36:34;101108.84;;;6.38;94.77
23170;BME280;11753;43.144;24.714;2022-10-17T01:37:52;101106.16;;;6.39;94.91
23170;BME280;11753;43.144;24.714;2022-10-17T01:40:52;101104.28;;;6.41;94.23
23170;BME280;11753;43.144;24.714;2022-10-17T01:43:39;101102.94;;;6.34;94.46
23170;BME280;11753;43.144;24.714;2022-10-17T01:46:49;101101.63;;;6.27;94.62
23170;BME280;11753;43.144;24.714;2022-10-17T01:47:51;101104.16;;;6.28;94.59
23170;BME280;11753;43.144;24.714;2022-10-17T01:48:54;101104.03;;;6.16;94.60
23170;BME280;11753;43.144;24.714;2022-10-17T01:50:13;101107.06;;;6.24;94.98
23170;BME280;11753;43.144;24.714;2022-10-17T01:51:23;101110.25;;;6.29;94.68
23170;BME280;11753;43.144;24.714;2022-10-17T01:52:35;101109.03;;;6.34;94.52
23170;BME280;11753;43.144;24.714;2022-10-17T01:53:40;101113.59;;;6.31;94.50
23170;BME280;11753;43.144;24.714;2022-10-17T01:54:45;101106.50;;;6.33;94.26
23170;BME280;11753;43.144;24.714;2022-10-17T01:55:48;101111.72;;;6.33;94.32
23170;BME280;11753;43.144;24.714;2022-10-17T01:56:57;101105.91;;;6.28;94.42
23170;BME280;11753;43.144;24.714;2022-10-17T01:58:11;101104.81;;;6.32;94.36
23170;BME280;11753;43.144;24.714;2022-10-17T01:59:24;101106.50;;;6.33;94.23
23170;BME280;11753;43.144;24.714;2022-10-17T02:00:27;101105.19;;;6.26;94.15
23170;BME280;11753;43.144;24.714;2022-10-17T02:01:29;101110.31;;;6.27;94.39
23170;BME280;11753;43.144;24.714;2022-10-17T02:02:31;101113.41;;;6.34;94.48
23170;BME280;11753;43.144;24.714;2022-10-17T02:03:33;101111.72;;;6.33;94.03
23170;BME280;11753;43.144;24.714;2022-10-17T02:04:35;101110.44;;;6.40;94.06
23170;BME280;11753;43.144;24.714;2022-10-17T02:05:40;101101.75;;;6.40;93.87
23170;BME280;11753;43.144;24.714;2022-10-17T02:06:42;101106.78;;;6.43;93.58
23170;BME280;11753;43.144;24.714;2022-10-17T02:07:43;101112.03;;;6.43;93.62
23170;BME280;11753;43.144;24.714;2022-10-17T02:08:46;101114.00;;;6.39;93.81
23170;BME280;11753;43.144;24.714;2022-10-17T02:09:48;101107.66;;;6.43;93.47
23170;BME280;11753;43.144;24.714;2022-10-17T02:16:42;101116.38;;;6.28;93.61
23170;BME280;11753;43.144;24.714;2022-10-17T02:17:58;101113.22;;;6.23;93.79
23170;BME280;11753;43.144;24.714;2022-10-17T02:19:43;101119.38;;;6.22;93.79
23170;BME280;11753;43.144;24.714;2022-10-17T02:20:50;101125.44;;;6.22;93.94
23170;BME280;11753;43.144;24.714;2022-10-17T02:22:03;101122.34;;;6.16;94.22
23170;BME280;11753;43.144;24.714;2022-10-17T02:23:17;101127.22;;;6.22;94.28
23170;BME280;11753;43.144;24.714;2022-10-17T02:25:44;101131.88;;;6.17;94.74
23170;BME280;11753;43.144;24.714;2022-10-17T02:30:18;101135.22;;;6.19;94.15
23170;BME280;11753;43.144;24.714;2022-10-17T02:33:00;101131.88;;;6.17;94.03
23170;BME280;11753;43.144;24.714;2022-10-17T02:34:18;101134.59;;;6.15;93.80
23170;BME280;11753;43.144;24.714;2022-10-17T02:35:22;101137.44;;;6.11;94.32
23170;BME280;11753;43.144;24.714;2022-10-17T02:36:58;101135.56;;;6.13;93.99
23170;BME280;11753;43.144;24.714;2022-10-17T02:38:00;101135.88;;;6.08;94.03
23170;BME280;11753;43.144;24.714;2022-10-17T02:39:03;101136.75;;;6.07;94.14
23170;BME280;11753;43.144;24.714;2022-10-17T02:40:06;101142.88;;;6.07;94.13
23170;BME280;11753;43.144;24.714;2022-10-17T02:41:10;101137.19;;;5.99;94.26
23170;BME280;11753;43.144;24.714;2022-10-17T02:42:14;101138.97;;;5.99;94.30
23170;BME280;11753;43.144;24.714;2022-10-17T02:43:15;101151.81;;;6.03;94.34
23170;BME280;11753;43.144;24.714;2022-10-17T02:44:17;101149.94;;;6.05;94.03
23170;BME280;11753;43.144;24.714;2022-10-17T02:45:20;101141.34;;;6.03;93.91
23170;BME280;11753;43.144;24.714;2022-10-17T02:46:26;101150.28;;;5.99;93.98
23170;BME280;11753;43.144;24.714;2022-10-17T02:47:57;101154.66;;;5.99;94.00
23170;BME280;11753;43.144;24.714;2022-10-17T02:49:35;101146.25;;;5.94;93.90
23170;BME280;11753;43.144;24.714;2022-10-17T02:52:16;101151.88;;;5.86;94.91
23170;BME280;11753;43.144;24.714;2022-10-17T02:53:33;101147.56;;;5.85;94.91
23170;BME280;11753;43.144;24.714;2022-10-17T02:54:49;101162.34;;;5.86;95.09
23170;BME280;11753;43.144;24.714;2022-10-17T02:55:56;101164.09;;;5.86;95.09
23170;BME280;11753;43.144;24.714;2022-10-17T02:57:06;101157.88;;;5.88;94.90
23170;BME280;11753;43.144;24.714;2022-10-17T02:58:30;101163.44;;;5.82;94.60
23170;BME280;11753;43.144;24.714;2022-10-17T02:59:34;101167.47;;;5.88;94.61
23170;BME280;11753;43.144;24.714;2022-10-17T03:00:38;101163.44;;;5.82;94.71
23170;BME280;11753;43.144;24.714;2022-10-17T03:01:40;101163.63;;;5.79;94.92
23170;BME280;11753;43.144;24.714;2022-10-17T03:02:47;101174.72;;;5.83;94.93
23170;BME280;11753;43.144;24.714;2022-10-17T03:03:48;101170.34;;;5.83;94.62
23170;BME280;11753;43.144;24.714;2022-10-17T03:04:49;101165.28;;;5.80;94.83
23170;BME280;11753;43.144;24.714;2022-10-17T03:05:51;101173.63;;;5.71;94.75
23170;BME280;11753;43.144;24.714;2022-10-17T03:06:52;101173.19;;;5.63;95.08
23170;BME280;11753;43.144;24.714;2022-10-17T03:07:54;101176.59;;;5.65;95.54
23170;BME280;11753;43.144;24.714;2022-10-17T03:08:55;101171.28;;;5.66;95.22
23170;BME280;11753;43.144;24.714;2022-10-17T03:09:56;101169.41;;;5.68;95.35
23170;BME280;11753;43.144;24.714;2022-10-17T03:10:57;101181.63;;;5.68;95.56
23170;BME280;11753;43.144;24.714;2022-10-17T03:11:58;101174.41;;;5.73;95.62
23170;BME280;11753;43.144;24.714;2022-10-17T03:12:59;101169.19;;;5.73;95.69
23170;BME280;11753;43.144;24.714;2022-10-17T03:14:02;101170.53;;;5.80;95.50
23170;BME280;11753;43.144;24.714;2022-10-17T03:15:04;101176.75;;;5.77;95.55
23170;BME280;11753;43.144;24.714;2022-10-17T03:16:06;101175.91;;;5.77;95.71
23170;BME280;11753;43.144;24.714;2022-10-17T03:17:07;101171.38;;;5.80;95.55
23170;BME280;11753;43.144;24.714;2022-10-17T03:18:08;101171.09;;;5.85;95.69
23170;BME280;11753;43.144;24.714;2022-10-17T03:19:09;101166.47;;;5.90;95.48
23170;BME280;11753;43.144;24.714;2022-10-17T03:20:10;101167.22;;;5.92;95.40
23170;BME280;11753;43.144;24.714;2022-10-17T03:21:11;101167.09;;;5.95;95.17
23170;BME280;11753;43.144;24.714;2022-10-17T03:22:12;101165.41;;;5.94;95.21
23170;BME280;11753;43.144;24.714;2022-10-17T03:23:13;101165.63;;;5.90;95.24
23170;BME280;11753;43.144;24.714;2022-10-17T03:24:14;101167.22;;;5.92;95.17
23170;BME280;11753;43.144;24.714;2022-10-17T03:25:15;101162.78;;;5.94;95.04
23170;BME280;11753;43.144;24.714;2022-10-17T03:26:16;101171.88;;;6.03;94.97
23170;BME280;11753;43.144;24.714;2022-10-17T03:27:17;101172.03;;;6.00;94.52
23170;BME280;11753;43.144;24.714;2022-10-17T03:28:18;101168.66;;;5.98;94.60
23170;BME280;11753;43.144;24.714;2022-10-17T03:29:19;101169.84;;;5.92;94.48
23170;BME280;11753;43.144;24.714;2022-10-17T03:30:20;101174.25;;;5.92;94.58
23170;BME280;11753;43.144;24.714;2022-10-17T03:31:21;101175.66;;;5.97;94.57
23170;BME280;11753;43.144;24.714;2022-10-17T03:32:22;101173.75;;;6.01;94.51
23170;BME280;11753;43.144;24.714;2022-10-17T03:33:23;101170.19;;;6.02;94.30
23170;BME280;11753;43.144;24.714;2022-10-17T03:34:24;101175.25;;;6.05;94.30
23170;BME280;11753;43.144;24.714;2022-10-17T03:35:26;101177.09;;;6.03;94.17
23170;BME280;11753;43.144;24.714;2022-10-17T03:36:27;101177.75;;;6.06;94.17
23170;BME280;11753;43.144;24.714;2022-10-17T03:37:28;101178.97;;;6.01;94.15
23170;BME280;11753;43.144;24.714;2022-10-17T03:38:29;101179.97;;;5.98;94.21
23170;BME280;11753;43.144;24.714;2022-10-17T03:39:29;101185.88;;;6.02;93.89
23170;BME280;11753;43.144;24.714;2022-10-17T03:40:33;101183.38;;;6.00;93.53
23170;BME280;11753;43.144;24.714;2022-10-17T03:41:34;101182.13;;;5.90;94.10
23170;BME280;11753;43.144;24.714;2022-10-17T03:42:35;101182.31;;;5.87;94.38
23170;BME280;11753;43.144;24.714;2022-10-17T03:43:37;101183.25;;;5.86;94.73
23170;BME280;11753;43.144;24.714;2022-10-17T03:44:39;101187.69;;;5.84;94.78
23170;BME280;11753;43.144;24.714;2022-10-17T03:45:39;101179.78;;;5.86;94.93
23170;BME280;11753;43.144;24.714;2022-10-17T03:46:41;101183.16;;;5.88;94.95
23170;BME280;11753;43.144;24.714;2022-10-17T03:47:41;101185.47;;;5.94;94.88
23170;BME280;11753;43.144;24.714;2022-10-17T03:48:42;101188.31;;;5.89;94.96
23170;BME280;11753;43.144;24.714;2022-10-17T03:49:43;101180.16;;;5.95;94.66
23170;BME280;11753;43.144;24.714;2022-10-17T03:50:44;101193.97;;;5.97;94.50
23170;BME280;11753;43.144;24.714;2022-10-17T03:51:45;101185.38;;;5.95;94.12
23170;BME280;11753;43.144;24.714;2022-10-17T03:52:47;101195.84;;;5.95;94.00
23170;BME280;11753;43.144;24.714;2022-10-17T03:53:49;101188.59;;;6.00;94.08
23170;BME280;11753;43.144;24.714;2022-10-17T03:54:50;101195.66;;;5.98;94.20
23170;BME280;11753;43.144;24.714;2022-10-17T03:55:51;101196.97;;;5.90;94.36
23170;BME280;11753;43.144;24.714;2022-10-17T03:56:52;101201.06;;;5.95;94.27
23170;BME280;11753;43.144;24.714;2022-10-17T03:57:53;101202.56;;;5.99;93.97
23170;BME280;11753;43.144;24.714;2022-10-17T03:58:54;101203.50;;;5.98;93.49
23170;BME280;11753;43.144;24.714;2022-10-17T03:59:55;101202.56;;;5.99;93.07
23170;BME280;11753;43.144;24.714;2022-10-17T04:00:56;101201.16;;;5.94;93.23
23170;BME280;11753;43.144;24.714;2022-10-17T04:01:57;101199.44;;;5.93;93.28
23170;BME280;11753;43.144;24.714;2022-10-17T04:02:57;101195.16;;;5.92;93.29
23170;BME280;11753;43.144;24.714;2022-10-17T04:03:58;101203.06;;;5.90;93.38
23170;BME280;11753;43.144;24.714;2022-10-17T04:04:59;101206.94;;;5.83;93.33
23170;BME280;11753;43.144;24.714;2022-10-17T04:06:00;101206.28;;;5.79;93.85
23170;BME280;11753;43.144;24.714;2022-10-17T04:07:01;101206.94;;;5.83;93.71
23170;BME280;11753;43.144;24.714;2022-10-17T04:08:01;101209.22;;;5.89;93.60
23170;BME280;11753;43.144;24.714;2022-10-17T04:09:03;101206.78;;;5.86;93.50
23170;BME280;11753;43.144;24.714;2022-10-17T04:10:04;101204.06;;;5.88;93.52
23170;BME280;11753;43.144;24.714;2022-10-17T04:11:09;101205.06;;;5.85;93.31
23170;BME280;11753;43.144;24.714;2022-10-17T04:12:10;101206.09;;;5.83;93.19
23170;BME280;11753;43.144;24.714;2022-10-17T04:13:10;101199.53;;;5.91;92.68
23170;BME280;11753;43.144;24.714;2022-10-17T04:14:11;101209.31;;;5.88;92.40
23170;BME280;11753;43.144;24.714;2022-10-17T04:15:11;101204.50;;;5.80;92.54
23170;BME280;11753;43.144;24.714;2022-10-17T04:16:16;101210.56;;;5.80;92.77
23170;BME280;11753;43.144;24.714;2022-10-17T04:17:17;101211.41;;;5.81;92.55
23170;BME280;11753;43.144;24.714;2022-10-17T04:18:18;101207.25;;;5.77;92.35
23170;BME280;11753;43.144;24.714;2022-10-17T04:19:19;101211.81;;;5.73;92.75
23170;BME280;11753;43.144;24.714;2022-10-17T04:20:19;101206.50;;;5.75;92.74
23170;BME280;11753;43.144;24.714;2022-10-17T04:21:20;101203.91;;;5.75;92.87
23170;BME280;11753;43.144;24.714;2022-10-17T04:22:21;101207.25;;;5.77;92.47
23170;BME280;11753;43.144;24.714;2022-10-17T04:23:22;101204.91;;;5.72;92.65
23170;BME280;11753;43.144;24.714;2022-10-17T04:24:22;101208.19;;;5.76;92.65
23170;BME280;11753;43.144;24.714;2022-10-17T04:25:24;101212.75;;;5.72;92.54
23170;BME280;11753;43.144;24.714;2022-10-17T04:26:25;101204.91;;;5.72;92.93
23170;BME280;11753;43.144;24.714;2022-10-17T04:27:26;101208.38;;;5.73;93.00
23170;BME280;11753;43.144;24.714;2022-10-17T04:28:27;101206.41;;;5.76;92.86
23170;BME280;11753;43.144;24.714;2022-10-17T04:29:28;101208.28;;;5.74;92.79
23170;BME280;11753;43.144;24.714;2022-10-17T04:30:29;101212.81;;;5.71;93.05
23170;BME280;11753;43.144;24.714;2022-10-17T04:31:30;101216.03;;;5.76;93.05
23170;BME280;11753;43.144;24.714;2022-10-17T04:32:35;101220.34;;;5.77;93.04
23170;BME280;11753;43.144;24.714;2022-10-17T04:33:36;101208.78;;;5.81;92.83
23170;BME280;11753;43.144;24.714;2022-10-17T04:34:37;101212.66;;;5.74;92.94
23170;BME280;11753;43.144;24.714;2022-10-17T04:35:38;101218.88;;;5.71;92.97
23170;BME280;11753;43.144;24.714;2022-10-17T04:36:39;101211.00;;;5.73;93.27
23170;BME280;11753;43.144;24.714;2022-10-17T04:37:40;101215.94;;;5.62;93.36
23170;BME280;11753;43.144;24.714;2022-10-17T04:38:42;101204.88;;;5.57;93.73
23170;BME280;11753;43.144;24.714;2022-10-17T04:39:43;101216.88;;;5.61;93.76
23170;BME280;11753;43.144;24.714;2022-10-17T04:40:44;101214.84;;;5.66;93.63
23170;BME280;11753;43.144;24.714;2022-10-17T04:41:45;101210.72;;;5.62;93.80
23170;BME280;11753;43.144;24.714;2022-10-17T04:42:45;101220.09;;;5.66;94.06
23170;BME280;11753;43.144;24.714;2022-10-17T04:43:46;101211.47;;;5.64;93.97
23170;BME280;11753;43.144;24.714;2022-10-17T04:44:47;101224.13;;;5.71;94.01
23170;BME280;11753;43.144;24.714;2022-10-17T04:45:48;101218.41;;;5.65;93.60
23170;BME280;11753;43.144;24.714;2022-10-17T04:46:49;101219.06;;;5.68;93.88
23170;BME280;11753;43.144;24.714;2022-10-17T04:47:50;101215.38;;;5.72;93.66
23170;BME280;11753;43.144;24.714;2022-10-17T04:48:52;101214.69;;;5.69;93.62
23170;BME280;11753;43.144;24.714;2022-10-17T04:49:53;101219.16;;;5.67;93.13
23170;BME280;11753;43.144;24.714;2022-10-17T04:50:59;101218.41;;;5.65;93.61
23170;BME280;11753;43.144;24.714;2022-10-17T04:52:00;101220.09;;;5.66;93.72
23170;BME280;11753;43.144;24.714;2022-10-17T04:53:01;101218.41;;;5.65;93.68
23170;BME280;11753;43.144;24.714;2022-10-17T04:54:02;101224.47;;;5.65;93.59
23170;BME280;11753;43.144;24.714;2022-10-17T04:55:05;101220.22;;;5.63;93.67
23170;BME280;11753;43.144;24.714;2022-10-17T04:56:13;101223.69;;;5.63;93.84
23170;BME280;11753;43.144;24.714;2022-10-17T04:57:14;101221.34;;;5.59;93.97
23170;BME280;11753;43.144;24.714;2022-10-17T04:58:15;101222.53;;;5.69;93.81
23170;BME280;11753;43.144;24.714;2022-10-17T04:59:16;101231.53;;;5.63;93.96
23170;BME280;11753;43.144;24.714;2022-10-17T05:00:17;101232.22;;;5.67;93.96
23170;BME280;11753;43.144;24.714;2022-10-17T05:01:20;101232.88;;;5.70;93.89
23170;BME280;11753;43.144;24.714;2022-10-17T05:02:21;101231.91;;;5.73;93.71
23170;BME280;11753;43.144;24.714;2022-10-17T05:03:22;101230.78;;;5.77;93.65
23170;BME280;11753;43.144;24.714;2022-10-17T05:04:23;101234.84;;;5.83;93.30
23170;BME280;11753;43.144;24.714;2022-10-17T05:05:24;101237.97;;;5.89;93.00
23170;BME280;11753;43.144;24.714;2022-10-17T05:06:25;101241.22;;;5.94;92.70
23170;BME280;11753;43.144;24.714;2022-10-17T05:07:29;101242.72;;;5.98;92.59
23170;BME280;11753;43.144;24.714;2022-10-17T05:08:30;101239.66;;;5.90;92.25
23170;BME280;11753;43.144;24.714;2022-10-17T05:09:31;101240.28;;;5.95;92.32
23170;BME280;11753;43.144;24.714;2022-10-17T05:10:36;101248.28;;;5.92;92.34
23170;BME280;11753;43.144;24.714;2022-10-17T05:11:37;101250.09;;;5.90;92.58
23170;BME280;11753;43.144;24.714;2022-10-17T05:12:38;101240.38;;;5.94;92.16
23170;BME280;11753;43.144;24.714;2022-10-17T05:13:39;101242.72;;;5.98;92.39
23170;BME280;11753;43.144;24.714;2022-10-17T05:14:40;101249.47;;;6.02;92.25
23170;BME280;11753;43.144;24.714;2022-10-17T05:15:41;101245.09;;;6.03;91.95
23170;BME280;11753;43.144;24.714;2022-10-17T05:16:42;101249.13;;;6.09;91.96
23170;BME280;11753;43.144;24.714;2022-10-17T05:17:43;101248.03;;;6.13;91.76
23170;BME280;11753;43.144;24.714;2022-10-17T05:18:47;101249.69;;;6.14;91.66
23170;BME280;11753;43.144;24.714;2022-10-17T05:19:48;101247.53;;;6.22;90.99
23170;BME280;11753;43.144;24.714;2022-10-17T05:20:49;101253.16;;;6.30;90.58
23170;BME280;11753;43.144;24.714;2022-10-17T05:21:49;101256.53;;;6.32;90.01
23170;BME280;11753;43.144;24.714;2022-10-17T05:22:50;101253.81;;;6.33;90.00
23170;BME280;11753;43.144;24.714;2022-10-17T05:23:51;101251.81;;;6.39;89.78
23170;BME280;11753;43.144;24.714;2022-10-17T05:24:52;101254.41;;;6.39;89.55
23170;BME280;11753;43.144;24.714;2022-10-17T05:25:54;101259.41;;;6.43;89.56
23170;BME280;11753;43.144;24.714;2022-10-17T05:26:55;101250.53;;;6.46;89.38
23170;BME280;11753;43.144;24.714;2022-10-17T05:27:55;101262.91;;;6.42;89.06
23170;BME280;11753;43.144;24.714;2022-10-17T05:28:56;101260.31;;;6.42;89.32
23170;BME280;11753;43.144;24.714;2022-10-17T05:29:58;101263.41;;;6.49;89.13
23170;BME280;11753;43.144;24.714;2022-10-17T05:31:04;101265.28;;;6.47;88.91
23170;BME280;11753;43.144;24.714;2022-10-17T05:32:06;101258.81;;;6.38;89.03
23170;BME280;11753;43.144;24.714;2022-10-17T05:33:06;101259.56;;;6.40;89.02
23170;BME280;11753;43.144;24.714;2022-10-17T05:34:07;101268.00;;;6.45;89.12
23170;BME280;11753;43.144;24.714;2022-10-17T05:35:08;101269.50;;;6.49;89.30
23170;BME280;11753;43.144;24.714;2022-10-17T05:36:09;101270.44;;;6.48;89.36
23170;BME280;11753;43.144;24.714;2022-10-17T05:37:10;101277.28;;;6.51;88.84
23170;BME280;11753;43.144;24.714;2022-10-17T05:38:10;101272.53;;;6.57;88.86
23170;BME280;11753;43.144;24.714;2022-10-17T05:39:12;101277.78;;;6.57;88.91
23170;BME280;11753;43.144;24.714;2022-10-17T05:40:14;101271.25;;;6.65;88.78
23170;BME280;11753;43.144;24.714;2022-10-17T05:41:16;101269.97;;;6.72;88.10
23170;BME280;11753;43.144;24.714;2022-10-17T05:42:17;101274.19;;;6.74;88.18
23170;BME280;11753;43.144;24.714;2022-10-17T05:43:17;101275.38;;;6.69;88.19
23170;BME280;11753;43.144;24.714;2022-10-17T05:44:18;101280.00;;;6.79;88.12
23170;BME280;11753;43.144;24.714;2022-10-17T05:45:19;101281.00;;;6.77;87.76
23170;BME280;11753;43.144;24.714;2022-10-17T05:46:20;101281.59;;;6.82;87.88
23170;BME280;11753;43.144;24.714;2022-10-17T05:47:21;101281.41;;;6.85;87.75
23170;BME280;11753;43.144;24.714;2022-10-17T05:48:23;101282.56;;;6.95;87.00
23170;BME280;11753;43.144;24.714;2022-10-17T05:49:23;101291.34;;;6.94;87.02
23170;BME280;11753;43.144;24.714;2022-10-17T05:50:25;101293.19;;;6.92;87.20
23170;BME280;11753;43.144;24.714;2022-10-17T05:51:25;101292.84;;;6.98;87.14
23170;BME280;11753;43.144;24.714;2022-10-17T05:52:26;101297.81;;;7.03;87.07
23170;BME280;11753;43.144;24.714;2022-10-17T05:53:32;101302.97;;;7.04;87.06
23170;BME280;11753;43.144;24.714;2022-10-17T05:54:34;101287.94;;;7.08;86.96
23170;BME280;11753;43.144;24.714;2022-10-17T05:55:34;101285.88;;;7.13;86.85
23170;BME280;11753;43.144;24.714;2022-10-17T05:56:35;101299.34;;;7.21;86.43
23170;BME280;11753;43.144;24.714;2022-10-17T05:57:36;101304.88;;;7.16;86.26
23170;BME280;11753;43.144;24.714;2022-10-17T05:58:42;101290.47;;;7.24;86.09
23170;BME280;11753;43.144;24.714;2022-10-17T05:59:45;101296.31;;;7.29;85.93
23170;BME280;11753;43.144;24.714;2022-10-17T06:00:46;101290.84;;;7.32;85.92
23170;BME280;11753;43.144;24.714;2022-10-17T06:01:47;101295.75;;;7.38;85.81
23170;BME280;11753;43.144;24.714;2022-10-17T06:02:48;101306.03;;;7.41;85.67
23170;BME280;11753;43.144;24.714;2022-10-17T06:03:49;101300.63;;;7.44;85.37
23170;BME280;11753;43.144;24.714;2022-10-17T06:04:50;101308.84;;;7.38;85.13